createdAt,value
2019-01-19T00:00:06.092Z,74.40
2019-01-19T00:01:05.328Z,74.50
2019-01-19T00:02:05.582Z,74.60
2019-01-19T00:03:10.902Z,74.50
2019-01-19T00:04:08.452Z,74.70
2019-01-19T00:05:10.921Z,74.70
2019-01-19T00:06:05.304Z,74.70
2019-01-19T00:07:05.643Z,74.70
2019-01-19T00:08:05.915Z,74.50
2019-01-19T00:09:10.091Z,74.60
2019-01-19T00:10:05.245Z,74.60
2019-01-19T00:11:05.456Z,74.70
2019-01-19T00:12:08.234Z,74.70
2019-01-19T00:13:05.483Z,74.70
2019-01-19T00:14:05.825Z,74.80
2019-01-19T00:15:06.129Z,74.90
2019-01-19T00:16:07.782Z,74.90
2019-01-19T00:17:06.101Z,74.90
2019-01-19T00:18:07.894Z,74.80
2019-01-19T00:19:06.129Z,74.80
2019-01-19T00:20:07.943Z,74.80
2019-01-19T00:21:06.134Z,74.70
2019-01-19T00:22:05.245Z,74.90
2019-01-19T00:23:10.670Z,74.80
2019-01-19T00:24:08.339Z,74.80
2019-01-19T00:25:08.099Z,74.80
2019-01-19T00:26:07.596Z,74.90
2019-01-19T00:27:08.285Z,74.80
2019-01-19T00:28:07.917Z,74.90
2019-01-19T00:29:06.102Z,74.80
2019-01-19T00:30:05.406Z,74.80
2019-01-19T00:31:08.333Z,74.90
2019-01-19T00:32:05.369Z,74.90
2019-01-19T00:33:08.310Z,74.90
2019-01-19T00:34:08.041Z,74.90
2019-01-19T00:35:08.853Z,74.90
2019-01-19T00:36:11.126Z,75.00
2019-01-19T00:37:07.773Z,75.10
2019-01-19T00:38:08.621Z,75.20
2019-01-19T00:39:05.948Z,75.10
2019-01-19T00:40:05.685Z,75.20
2019-01-19T00:41:06.094Z,75.20
2019-01-19T00:42:05.499Z,75.20
2019-01-19T00:43:05.821Z,75.20
2019-01-19T00:44:06.163Z,75.10
2019-01-19T00:45:07.901Z,75.00
2019-01-19T00:46:08.662Z,75.00
2019-01-19T00:47:08.523Z,75.00
2019-01-19T00:48:05.673Z,74.90
2019-01-19T00:49:05.982Z,75.00
2019-01-19T00:50:05.233Z,74.90
2019-01-19T00:51:05.473Z,74.90
2019-01-19T00:52:08.267Z,74.90
2019-01-19T00:53:08.035Z,74.90
2019-01-19T00:54:05.143Z,74.90
2019-01-19T00:55:07.872Z,75.00
2019-01-19T00:56:05.990Z,75.00
2019-01-19T00:57:05.163Z,75.00
2019-01-19T00:58:05.300Z,75.00
2019-01-19T00:59:05.604Z,75.00
2019-01-19T01:00:05.917Z,75.00
2019-01-19T01:01:11.161Z,75.10
2019-01-19T01:02:05.139Z,75.10
2019-01-19T01:03:05.304Z,75.20
2019-01-19T01:04:05.553Z,75.20
2019-01-19T01:05:05.332Z,75.20
2019-01-19T01:06:05.448Z,75.30
2019-01-19T01:07:05.900Z,75.30
2019-01-19T01:08:07.865Z,75.50
2019-01-19T01:09:05.993Z,75.40
2019-01-19T01:10:05.204Z,75.50
2019-01-19T01:11:08.153Z,75.50
2019-01-19T01:12:05.164Z,75.50
2019-01-19T01:13:05.482Z,75.60
2019-01-19T01:14:08.295Z,75.70
2019-01-19T01:15:05.298Z,75.70
2019-01-19T01:16:05.630Z,75.70
2019-01-19T01:17:08.469Z,75.70
2019-01-19T01:18:05.680Z,75.70
2019-01-19T01:19:08.423Z,76.10
2019-01-19T01:20:05.594Z,75.90
2019-01-19T01:21:06.078Z,76.10
2019-01-19T01:22:05.245Z,76.10
2019-01-19T01:23:08.099Z,76.10
2019-01-19T01:24:07.800Z,76.20
2019-01-19T01:25:08.613Z,76.30
2019-01-19T01:26:05.812Z,76.30
2019-01-19T01:27:11.310Z,76.40
2019-01-19T01:28:05.460Z,76.30
2019-01-19T01:29:05.937Z,76.40
2019-01-19T01:30:07.672Z,76.20
2019-01-19T01:31:05.960Z,76.20
2019-01-19T01:32:07.830Z,76.30
2019-01-19T01:33:08.658Z,76.20
2019-01-19T01:34:05.788Z,76.20
2019-01-19T01:35:08.586Z,76.30
2019-01-19T01:36:05.736Z,76.30
2019-01-19T01:37:08.490Z,76.30
2019-01-19T01:38:05.571Z,76.40
2019-01-19T01:39:05.198Z,76.30
2019-01-19T01:40:07.927Z,76.30
2019-01-19T01:41:06.188Z,76.30
2019-01-19T01:42:05.471Z,76.30
2019-01-19T01:43:05.911Z,76.30
2019-01-19T01:44:05.277Z,76.40
2019-01-19T01:45:05.617Z,76.50
2019-01-19T01:46:05.943Z,76.60
2019-01-19T01:47:05.059Z,76.60
2019-01-19T01:48:10.243Z,76.60
2019-01-19T01:49:07.958Z,76.70
2019-01-19T01:50:06.097Z,76.70
2019-01-19T01:51:10.261Z,76.60
2019-01-19T01:52:08.072Z,76.60
2019-01-19T01:53:05.170Z,76.60
2019-01-19T01:54:05.426Z,76.60
2019-01-19T01:55:08.259Z,76.70
2019-01-19T01:56:08.111Z,76.70
2019-01-19T01:57:05.318Z,76.70
2019-01-19T01:58:05.632Z,76.90
2019-01-19T01:59:06.009Z,76.80
2019-01-19T02:00:05.229Z,76.80
2019-01-19T02:01:07.961Z,76.80
2019-01-19T02:02:06.107Z,76.90
2019-01-19T02:03:05.260Z,76.90
2019-01-19T02:04:08.113Z,76.90
2019-01-19T02:05:07.769Z,76.90
2019-01-19T02:06:05.888Z,77.90
2019-01-19T02:07:07.656Z,77.00
2019-01-19T02:08:13.404Z,77.10
2019-01-19T02:09:08.159Z,77.10
2019-01-19T02:10:05.220Z,77.10
2019-01-19T02:11:07.953Z,77.10
2019-01-19T02:12:08.620Z,77.10
2019-01-19T02:13:10.993Z,77.10
2019-01-19T02:14:08.708Z,77.10
2019-01-19T02:15:08.564Z,77.00
2019-01-19T02:16:05.848Z,77.10
2019-01-19T02:17:06.433Z,77.20
2019-01-19T02:18:05.730Z,77.20
2019-01-19T02:19:08.450Z,77.20
2019-01-19T02:20:05.498Z,77.20
2019-01-19T02:21:05.976Z,77.20
2019-01-19T02:22:05.190Z,77.20
2019-01-19T02:23:07.929Z,77.20
2019-01-19T02:24:08.592Z,77.10
2019-01-19T02:25:05.899Z,77.30
2019-01-19T02:26:06.243Z,77.20
2019-01-19T02:27:05.466Z,77.20
2019-01-19T02:28:05.726Z,77.20
2019-01-19T02:29:05.969Z,77.10
2019-01-19T02:30:05.981Z,77.20
2019-01-19T02:31:07.871Z,77.20
2019-01-19T02:32:08.701Z,77.10
2019-01-19T02:33:05.749Z,77.10
2019-01-19T02:34:06.034Z,77.10
2019-01-19T02:35:07.821Z,77.20
2019-01-19T02:36:08.533Z,77.10
2019-01-19T02:37:08.225Z,77.20
2019-01-19T02:38:07.778Z,77.20
2019-01-19T02:39:08.370Z,77.20
2019-01-19T02:40:08.114Z,77.20
2019-01-19T02:41:05.267Z,77.10
2019-01-19T02:42:08.206Z,77.20
2019-01-19T02:43:05.225Z,77.10
2019-01-19T02:44:05.441Z,77.20
2019-01-19T02:45:08.153Z,76.90
2019-01-19T02:46:07.679Z,76.90
2019-01-19T02:47:05.798Z,76.90
2019-01-19T02:48:06.098Z,76.90
2019-01-19T02:49:05.385Z,76.90
2019-01-19T02:50:05.912Z,77.10
2019-01-19T02:51:06.209Z,77.10
2019-01-19T02:52:05.369Z,51.60
2019-01-19T02:53:05.523Z,77.40
2019-01-19T02:54:05.909Z,77.40
2019-01-19T02:55:06.656Z,77.60
2019-01-19T02:56:05.876Z,77.70
2019-01-19T02:57:08.857Z,77.70
2019-01-19T02:58:06.169Z,77.70
2019-01-19T02:59:05.293Z,77.70
2019-01-19T03:00:05.522Z,77.70
2019-01-19T03:01:06.003Z,77.60
2019-01-19T03:02:05.132Z,77.70
2019-01-19T03:03:07.960Z,77.70
2019-01-19T03:04:06.090Z,77.70
2019-01-19T03:05:07.742Z,77.70
2019-01-19T03:06:08.484Z,77.70
2019-01-19T03:07:05.534Z,77.70
2019-01-19T03:08:05.769Z,77.70
2019-01-19T03:09:08.699Z,77.60
2019-01-19T03:10:10.856Z,77.50
2019-01-19T03:11:08.615Z,77.70
2019-01-19T03:12:05.858Z,52.00
2019-01-19T03:13:06.176Z,77.70
2019-01-19T03:14:05.363Z,77.70
2019-01-19T03:15:05.758Z,77.80
2019-01-19T03:16:08.724Z,78.20
2019-01-19T03:17:08.422Z,77.70
2019-01-19T03:18:05.585Z,77.70
2019-01-19T03:19:08.302Z,77.70
2019-01-19T03:20:07.776Z,77.60
2019-01-19T03:21:05.952Z,77.70
2019-01-19T03:22:05.054Z,77.50
2019-01-19T03:23:05.115Z,77.60
2019-01-19T03:24:05.292Z,77.60
2019-01-19T03:25:05.470Z,77.70
2019-01-19T03:26:08.458Z,77.60
2019-01-19T03:27:08.128Z,77.60
2019-01-19T03:28:05.157Z,77.60
2019-01-19T03:29:05.395Z,77.60
2019-01-19T03:30:06.168Z,77.60
2019-01-19T03:31:05.397Z,77.50
2019-01-19T03:32:05.610Z,77.50
2019-01-19T03:33:06.029Z,77.50
2019-01-19T03:34:07.738Z,77.50
2019-01-19T03:35:08.689Z,77.60
2019-01-19T03:36:05.918Z,77.60
2019-01-19T03:37:05.181Z,77.70
2019-01-19T03:38:05.288Z,77.70
2019-01-19T03:39:10.534Z,78.10
2019-01-19T03:40:05.785Z,78.10
2019-01-19T03:41:06.268Z,78.20
2019-01-19T03:42:05.514Z,78.20
2019-01-19T03:43:05.963Z,78.30
2019-01-19T03:44:07.655Z,78.20
2019-01-19T03:45:05.857Z,78.30
2019-01-19T03:46:06.324Z,78.40
2019-01-19T03:47:05.740Z,78.40
2019-01-19T03:48:05.967Z,78.40
2019-01-19T03:49:05.257Z,78.40
2019-01-19T03:50:08.009Z,78.40
2019-01-19T03:51:07.501Z,78.40
2019-01-19T03:52:05.573Z,78.40
2019-01-19T03:53:08.469Z,78.30
2019-01-19T03:54:10.640Z,78.30
2019-01-19T03:55:06.063Z,78.30
2019-01-19T03:56:05.226Z,78.30
2019-01-19T03:57:07.903Z,78.30
2019-01-19T03:58:06.081Z,78.30
2019-01-19T03:59:05.218Z,78.20
2019-01-19T04:00:07.978Z,78.10
2019-01-19T04:01:06.331Z,78.20
2019-01-19T04:02:05.747Z,78.10
2019-01-19T04:03:08.680Z,78.10
2019-01-19T04:04:08.488Z,78.00
2019-01-19T04:05:05.734Z,78.10
2019-01-19T04:06:13.149Z,78.10
2019-01-19T04:07:05.210Z,78.00
2019-01-19T04:08:05.526Z,78.10
2019-01-19T04:09:08.515Z,78.20
2019-01-19T04:10:05.585Z,78.20
2019-01-19T04:11:05.797Z,78.20
2019-01-19T04:12:06.145Z,78.20
2019-01-19T04:13:05.284Z,78.30
2019-01-19T04:14:05.562Z,78.30
2019-01-19T04:15:07.789Z,78.50
2019-01-19T04:16:08.393Z,78.50
2019-01-19T04:17:10.504Z,78.60
2019-01-19T04:18:05.563Z,78.70
2019-01-19T04:19:08.318Z,78.80
2019-01-19T04:20:08.087Z,78.80
2019-01-19T04:21:05.059Z,78.80
2019-01-19T04:22:05.269Z,78.80
2019-01-19T04:23:05.582Z,78.90
2019-01-19T04:24:08.346Z,78.80
2019-01-19T04:25:05.513Z,78.80
2019-01-19T04:26:08.305Z,79.30
2019-01-19T04:27:08.024Z,79.20
2019-01-19T04:28:05.055Z,78.90
2019-01-19T04:29:05.402Z,78.90
2019-01-19T04:30:08.248Z,79.10
2019-01-19T04:31:05.197Z,78.80
2019-01-19T04:32:05.374Z,78.80
2019-01-19T04:33:08.055Z,78.80
2019-01-19T04:34:05.138Z,78.80
2019-01-19T04:35:05.293Z,78.70
2019-01-19T04:36:08.159Z,78.70
2019-01-19T04:37:05.222Z,78.80
2019-01-19T04:38:05.668Z,78.70
2019-01-19T04:39:08.589Z,78.60
2019-01-19T04:40:08.176Z,78.70
2019-01-19T04:41:07.708Z,78.60
2019-01-19T04:42:08.591Z,78.70
2019-01-19T04:43:05.851Z,78.70
2019-01-19T04:44:06.058Z,78.80
2019-01-19T04:45:05.447Z,78.70
2019-01-19T04:46:10.690Z,78.80
2019-01-19T04:47:05.745Z,78.80
2019-01-19T04:48:06.051Z,78.80
2019-01-19T04:49:05.283Z,78.80
2019-01-19T04:50:11.064Z,78.70
2019-01-19T04:51:08.718Z,78.70
2019-01-19T04:52:05.892Z,78.70
2019-01-19T04:53:06.119Z,78.60
2019-01-19T04:54:05.232Z,78.60
2019-01-19T04:55:05.276Z,78.50
2019-01-19T04:56:08.101Z,78.50
2019-01-19T04:57:05.264Z,78.50
2019-01-19T04:58:05.572Z,78.50
2019-01-19T04:59:05.880Z,78.40
2019-01-19T05:00:06.151Z,78.30
2019-01-19T05:01:05.477Z,78.30
2019-01-19T05:02:08.485Z,78.20
2019-01-19T05:03:05.700Z,78.30
2019-01-19T05:04:05.985Z,78.20
2019-01-19T05:05:05.206Z,78.00
2019-01-19T05:06:12.945Z,78.00
2019-01-19T05:07:05.058Z,78.20
2019-01-19T05:08:07.888Z,78.30
2019-01-19T05:09:08.505Z,78.40
2019-01-19T05:10:05.616Z,78.30
2019-01-19T05:11:05.947Z,78.40
2019-01-19T05:12:05.109Z,78.40
2019-01-19T05:13:05.330Z,78.60
2019-01-19T05:14:05.471Z,78.50
2019-01-19T05:15:05.821Z,78.60
2019-01-19T05:16:06.326Z,78.50
2019-01-19T05:17:08.296Z,78.70
2019-01-19T05:18:07.788Z,78.70
2019-01-19T05:19:06.043Z,78.70
2019-01-19T05:20:07.723Z,78.60
2019-01-19T05:21:06.079Z,78.60
2019-01-19T05:22:05.340Z,78.60
2019-01-19T05:23:08.118Z,78.60
2019-01-19T05:24:05.048Z,78.60
2019-01-19T05:25:08.327Z,78.60
2019-01-19T05:26:08.062Z,78.60
2019-01-19T05:27:08.786Z,78.50
2019-01-19T05:28:08.576Z,78.50
2019-01-19T05:29:05.616Z,78.50
2019-01-19T05:30:05.267Z,78.50
2019-01-19T05:31:05.764Z,78.40
2019-01-19T05:32:08.651Z,78.40
2019-01-19T05:33:05.703Z,78.40
2019-01-19T05:34:05.895Z,79.40
2019-01-19T05:35:08.669Z,78.60
2019-01-19T05:36:05.742Z,78.60
2019-01-19T05:37:08.477Z,78.60
2019-01-19T05:38:05.484Z,78.50
2019-01-19T05:39:08.349Z,78.70
2019-01-19T05:40:07.924Z,78.60
2019-01-19T05:41:06.278Z,78.70
2019-01-19T05:42:05.483Z,78.60
2019-01-19T05:43:08.207Z,78.70
2019-01-19T05:44:05.371Z,78.70
2019-01-19T05:45:08.343Z,78.60
2019-01-19T05:46:07.969Z,78.60
2019-01-19T05:47:05.017Z,78.50
2019-01-19T05:48:05.093Z,78.50
2019-01-19T05:49:05.246Z,78.50
2019-01-19T05:50:08.086Z,78.50
2019-01-19T05:51:05.233Z,78.50
2019-01-19T05:52:05.455Z,78.50
2019-01-19T05:53:05.879Z,78.50
2019-01-19T05:54:06.282Z,78.50
2019-01-19T05:55:08.221Z,78.50
2019-01-19T05:56:05.217Z,78.50
2019-01-19T05:57:05.311Z,78.40
2019-01-19T05:58:05.393Z,78.50
2019-01-19T05:59:08.089Z,78.50
2019-01-19T06:00:05.188Z,78.50
2019-01-19T06:01:05.339Z,78.50
2019-01-19T06:02:05.439Z,78.50
2019-01-19T06:03:05.887Z,78.60
2019-01-19T06:04:06.133Z,78.70
2019-01-19T06:05:05.451Z,78.60
2019-01-19T06:06:08.118Z,78.60
2019-01-19T06:07:05.061Z,78.60
2019-01-19T06:08:05.169Z,78.60
2019-01-19T06:09:05.362Z,78.50
2019-01-19T06:10:07.966Z,78.60
2019-01-19T06:11:06.261Z,78.50
2019-01-19T06:12:08.145Z,78.50
2019-01-19T06:13:05.108Z,78.60
2019-01-19T06:14:05.340Z,78.50
2019-01-19T06:15:05.573Z,78.50
2019-01-19T06:16:08.249Z,78.50
2019-01-19T06:17:05.233Z,78.50
2019-01-19T06:18:08.089Z,78.50
2019-01-19T06:19:05.111Z,78.50
2019-01-19T06:20:05.317Z,78.50
2019-01-19T06:21:05.524Z,78.50
2019-01-19T06:22:08.308Z,78.40
2019-01-19T06:23:10.565Z,78.50
2019-01-19T06:24:08.384Z,78.50
2019-01-19T06:25:05.534Z,78.50
2019-01-19T06:26:05.778Z,78.50
2019-01-19T06:27:08.628Z,78.60
2019-01-19T06:28:05.716Z,78.60
2019-01-19T06:29:05.924Z,78.60
2019-01-19T06:30:05.445Z,78.70
2019-01-19T06:31:08.296Z,78.90
2019-01-19T06:32:07.794Z,79.00
2019-01-19T06:33:06.009Z,79.00
2019-01-19T06:34:07.782Z,79.00
2019-01-19T06:35:05.916Z,79.00
2019-01-19T06:36:11.248Z,78.90
2019-01-19T06:37:07.948Z,78.90
2019-01-19T06:38:08.732Z,78.90
2019-01-19T06:39:08.514Z,78.90
2019-01-19T06:40:05.803Z,78.90
2019-01-19T06:41:08.601Z,78.90
2019-01-19T06:42:05.769Z,78.90
2019-01-19T06:43:08.615Z,78.80
2019-01-19T06:44:05.641Z,78.90
2019-01-19T06:45:05.880Z,78.80
2019-01-19T06:46:05.134Z,78.80
2019-01-19T06:47:10.649Z,78.90
2019-01-19T06:48:05.722Z,78.80
2019-01-19T06:49:05.879Z,79.00
2019-01-19T06:50:05.662Z,79.00
2019-01-19T06:51:05.871Z,79.00
2019-01-19T06:52:06.259Z,78.90
2019-01-19T06:53:05.463Z,78.90
2019-01-19T06:54:08.880Z,79.00
2019-01-19T06:55:06.130Z,79.00
2019-01-19T06:56:05.392Z,79.00
2019-01-19T06:57:05.566Z,79.00
2019-01-19T06:58:08.476Z,79.10
2019-01-19T06:59:05.461Z,79.10
2019-01-19T07:00:05.621Z,79.10
2019-01-19T07:01:05.847Z,79.10
2019-01-19T07:02:06.200Z,79.00
2019-01-19T07:03:05.379Z,79.20
2019-01-19T07:04:05.521Z,79.20
2019-01-19T07:05:05.730Z,79.20
2019-01-19T07:06:08.403Z,79.30
2019-01-19T07:07:05.406Z,79.30
2019-01-19T07:08:08.177Z,79.30
2019-01-19T07:09:05.209Z,79.30
2019-01-19T07:10:05.384Z,79.30
2019-01-19T07:11:08.042Z,79.40
2019-01-19T07:12:05.113Z,79.40
2019-01-19T07:13:05.487Z,79.40
2019-01-19T07:14:05.665Z,79.30
2019-01-19T07:15:05.901Z,79.30
2019-01-19T07:16:05.091Z,79.30
2019-01-19T07:17:05.326Z,79.30
2019-01-19T07:18:08.004Z,79.40
2019-01-19T07:19:08.718Z,79.40
2019-01-19T07:20:05.835Z,79.40
2019-01-19T07:21:06.123Z,79.40
2019-01-19T07:22:07.881Z,79.50
2019-01-19T07:23:05.937Z,79.50
2019-01-19T07:24:05.067Z,79.50
2019-01-19T07:25:05.177Z,79.40
2019-01-19T07:26:07.953Z,79.50
2019-01-19T07:27:08.674Z,79.50
2019-01-19T07:28:05.944Z,79.50
2019-01-19T07:29:05.272Z,79.50
2019-01-19T07:30:08.261Z,79.60
2019-01-19T07:31:07.821Z,79.70
2019-01-19T07:32:08.601Z,79.70
2019-01-19T07:33:10.739Z,79.70
2019-01-19T07:34:05.784Z,79.70
2019-01-19T07:35:06.073Z,79.70
2019-01-19T07:36:07.756Z,79.70
2019-01-19T07:37:10.302Z,79.70
2019-01-19T07:38:05.486Z,79.70
2019-01-19T07:39:08.230Z,79.70
2019-01-19T07:40:05.411Z,79.70
2019-01-19T07:41:05.593Z,79.70
2019-01-19T07:42:05.900Z,79.70
2019-01-19T07:43:08.983Z,79.90
2019-01-19T07:44:06.191Z,79.80
2019-01-19T07:45:05.401Z,79.80
2019-01-19T07:46:05.696Z,79.80
2019-01-19T07:47:08.553Z,79.70
2019-01-19T07:48:05.551Z,79.70
2019-01-19T07:49:06.010Z,79.70
2019-01-19T07:50:07.729Z,79.70
2019-01-19T07:51:05.892Z,79.70
2019-01-19T07:52:06.162Z,79.70
2019-01-19T07:53:07.792Z,79.70
2019-01-19T07:54:05.942Z,79.90
2019-01-19T07:55:07.516Z,79.80
2019-01-19T07:56:05.637Z,79.80
2019-01-19T07:57:05.772Z,79.80
2019-01-19T07:58:11.285Z,79.80
2019-01-19T07:59:05.444Z,79.80
2019-01-19T08:00:05.634Z,79.80
2019-01-19T08:01:05.850Z,79.80
2019-01-19T08:02:06.336Z,79.80
2019-01-19T08:03:05.508Z,79.90
2019-01-19T08:04:08.231Z,79.90
2019-01-19T08:05:05.254Z,80.00
2019-01-19T08:06:05.690Z,79.90
2019-01-19T08:07:05.901Z,79.90
2019-01-19T08:08:06.376Z,79.90
2019-01-19T08:09:05.632Z,80.00
2019-01-19T08:10:06.373Z,79.90
2019-01-19T08:11:05.495Z,79.90
2019-01-19T08:12:08.092Z,79.80
2019-01-19T08:13:05.216Z,79.80
2019-01-19T08:14:05.382Z,79.90
2019-01-19T08:15:08.215Z,79.90
2019-01-19T08:16:12.707Z,79.90
2019-01-19T08:17:13.543Z,79.90
2019-01-19T08:18:05.764Z,79.90
2019-01-19T08:19:08.766Z,80.00
2019-01-19T08:20:05.868Z,79.90
2019-01-19T08:21:05.262Z,79.90
2019-01-19T08:22:05.570Z,79.90
2019-01-19T08:23:05.941Z,79.90
2019-01-19T08:24:05.118Z,79.90
2019-01-19T08:25:07.833Z,79.80
2019-01-19T08:26:08.376Z,79.90
2019-01-19T08:27:05.482Z,79.80
2019-01-19T08:28:05.575Z,79.90
2019-01-19T08:29:05.689Z,79.90
2019-01-19T08:30:05.514Z,79.80
2019-01-19T08:31:05.780Z,79.80
2019-01-19T08:32:05.907Z,79.80
2019-01-19T08:33:08.899Z,79.80
2019-01-19T08:34:05.954Z,79.80
2019-01-19T08:35:04.991Z,79.80
2019-01-19T08:36:05.148Z,79.90
2019-01-19T08:37:05.233Z,79.90
2019-01-19T08:38:07.877Z,79.90
2019-01-19T08:39:08.735Z,79.80
2019-01-19T08:40:13.395Z,79.90
2019-01-19T08:41:07.978Z,79.80
2019-01-19T08:42:14.133Z,79.80
2019-01-19T08:43:07.946Z,79.90
2019-01-19T08:44:08.695Z,79.80
2019-01-19T08:45:05.730Z,80.00
2019-01-19T08:46:06.062Z,80.00
2019-01-19T08:47:05.164Z,80.00
2019-01-19T08:48:05.347Z,80.00
2019-01-19T08:49:07.981Z,80.00
2019-01-19T08:50:08.682Z,79.90
2019-01-19T08:51:08.423Z,80.10
2019-01-19T08:52:05.505Z,80.10
2019-01-19T08:53:08.483Z,80.00
2019-01-19T08:54:05.489Z,80.00
2019-01-19T08:55:05.572Z,80.10
2019-01-19T08:56:08.410Z,80.10
2019-01-19T08:57:05.352Z,80.10
2019-01-19T08:58:08.246Z,80.10
2019-01-19T08:59:05.304Z,80.10
2019-01-19T09:00:05.506Z,80.10
2019-01-19T09:01:05.662Z,80.00
2019-01-19T09:02:05.966Z,80.00
2019-01-19T09:03:05.073Z,80.00
2019-01-19T09:04:05.346Z,80.30
2019-01-19T09:05:05.667Z,80.10
2019-01-19T09:06:06.026Z,80.00
2019-01-19T09:07:05.133Z,80.00
2019-01-19T09:09:06.039Z,79.90
2019-01-19T09:10:05.269Z,79.90
2019-01-19T09:11:07.747Z,80.00
2019-01-19T09:12:05.877Z,79.80
2019-01-19T09:13:05.159Z,79.90
2019-01-19T09:14:05.431Z,79.80
2019-01-19T09:15:05.884Z,79.80
2019-01-19T09:16:05.103Z,79.70
2019-01-19T09:17:10.625Z,79.70
2019-01-19T09:18:05.754Z,79.70
2019-01-19T09:19:06.116Z,79.70
2019-01-19T09:20:05.404Z,79.70
2019-01-19T09:21:05.873Z,79.70
2019-01-19T09:22:08.647Z,79.60
2019-01-19T09:23:08.219Z,79.60
2019-01-19T09:24:05.234Z,79.60
2019-01-19T09:25:05.480Z,79.60
2019-01-19T09:26:05.784Z,79.50
2019-01-19T09:27:06.195Z,79.50
2019-01-19T09:28:08.044Z,79.50
2019-01-19T09:29:07.842Z,79.50
2019-01-19T09:30:05.624Z,79.50
2019-01-19T09:31:05.956Z,79.40
2019-01-19T09:32:05.168Z,79.50
2019-01-19T09:33:05.390Z,79.40
2019-01-19T09:34:05.605Z,79.40
2019-01-19T09:35:05.783Z,79.40
2019-01-19T09:36:06.259Z,79.30
2019-01-19T09:37:05.526Z,79.30
2019-01-19T09:38:05.833Z,79.20
2019-01-19T09:39:06.107Z,79.30
2019-01-19T09:40:05.541Z,79.20
2019-01-19T09:41:05.972Z,79.20
2019-01-19T09:42:05.182Z,79.20
2019-01-19T09:43:07.981Z,79.20
2019-01-19T09:44:06.089Z,79.20
2019-01-19T09:45:05.409Z,79.10
2019-01-19T09:46:05.807Z,79.00
2019-01-19T09:47:06.028Z,79.00
2019-01-19T09:48:07.843Z,78.80
2019-01-19T09:49:08.682Z,78.80
2019-01-19T09:50:08.403Z,78.90
2019-01-19T09:51:05.599Z,78.90
2019-01-19T09:52:05.840Z,78.80
2019-01-19T09:53:05.998Z,78.90
2019-01-19T09:54:05.865Z,78.90
2019-01-19T09:55:06.213Z,78.80
2019-01-19T09:56:05.517Z,78.80
2019-01-19T09:57:05.934Z,78.80
2019-01-19T09:58:05.099Z,78.80
2019-01-19T09:59:12.945Z,78.70
2019-01-19T10:00:06.037Z,78.70
2019-01-19T10:01:05.497Z,78.50
2019-01-19T10:02:05.807Z,78.50
2019-01-19T10:03:06.307Z,78.50
2019-01-19T10:04:05.575Z,78.40
2019-01-19T10:05:05.731Z,78.30
2019-01-19T10:06:06.080Z,78.20
2019-01-19T10:07:05.374Z,78.10
2019-01-19T10:08:05.661Z,78.00
2019-01-19T10:09:06.084Z,78.00
2019-01-19T10:10:05.267Z,78.00
2019-01-19T10:11:05.523Z,77.90
2019-01-19T10:12:05.741Z,77.90
2019-01-19T10:13:06.053Z,77.80
2019-01-19T10:14:07.898Z,77.50
2019-01-19T10:15:05.958Z,77.50
2019-01-19T10:16:05.031Z,77.40
2019-01-19T10:17:05.236Z,77.30
2019-01-19T10:18:05.590Z,77.10
2019-01-19T10:19:05.780Z,77.20
2019-01-19T10:20:05.382Z,77.20
2019-01-19T10:21:05.722Z,77.20
2019-01-19T10:22:08.648Z,77.30
2019-01-19T10:23:05.998Z,77.30
2019-01-19T10:24:05.178Z,77.10
2019-01-19T10:25:05.348Z,77.20
2019-01-19T10:26:05.659Z,77.20
2019-01-19T10:27:05.871Z,77.20
2019-01-19T10:28:06.101Z,77.20
2019-01-19T10:29:05.279Z,77.10
2019-01-19T10:30:05.975Z,77.10
2019-01-19T10:31:05.148Z,77.10
2019-01-19T10:32:07.834Z,77.10
2019-01-19T10:33:08.349Z,77.00
2019-01-19T10:34:08.006Z,76.90
2019-01-19T10:35:05.007Z,76.90
2019-01-19T10:36:07.567Z,76.90
2019-01-19T10:37:05.669Z,76.90
2019-01-19T10:38:08.796Z,76.80
2019-01-19T10:39:08.317Z,76.70
2019-01-19T10:40:05.355Z,76.70
2019-01-19T10:41:05.528Z,76.70
2019-01-19T10:42:08.286Z,76.70
2019-01-19T10:43:05.340Z,76.70
2019-01-19T10:44:05.578Z,76.60
2019-01-19T10:45:05.830Z,76.60
2019-01-19T10:46:08.649Z,76.40
2019-01-19T10:47:05.755Z,76.40
2019-01-19T10:48:06.064Z,76.30
2019-01-19T10:49:05.183Z,76.40
2019-01-19T10:50:05.355Z,76.20
2019-01-19T10:51:05.533Z,76.10
2019-01-19T10:52:08.314Z,75.80
2019-01-19T10:53:13.820Z,75.50
2019-01-19T10:54:06.038Z,75.40
2019-01-19T10:55:05.244Z,75.50
2019-01-19T10:56:05.381Z,75.60
2019-01-19T10:57:07.980Z,75.40
2019-01-19T10:58:06.276Z,75.40
2019-01-19T10:59:05.468Z,75.40
2019-01-19T11:00:05.682Z,75.40
2019-01-19T11:01:08.613Z,74.90
2019-01-19T11:02:05.667Z,74.90
2019-01-19T11:03:05.978Z,74.70
2019-01-19T11:04:05.094Z,74.30
2019-01-19T11:05:07.781Z,73.90
2019-01-19T11:06:08.382Z,73.80
2019-01-19T11:07:05.390Z,73.80
2019-01-19T11:08:05.566Z,73.30
2019-01-19T11:09:05.734Z,72.10
2019-01-19T11:10:08.429Z,69.10
2019-01-19T11:11:05.369Z,69.00
2019-01-19T11:12:05.619Z,67.10
2019-01-19T11:13:05.780Z,65.30
2019-01-19T11:14:08.825Z,64.40
2019-01-19T11:15:08.667Z,63.00
2019-01-19T11:16:05.752Z,63.00
2019-01-19T11:17:06.253Z,63.20
2019-01-19T11:18:05.537Z,60.10
2019-01-19T11:19:05.698Z,59.00
2019-01-19T11:20:05.810Z,59.20
2019-01-19T11:21:11.219Z,59.90
2019-01-19T11:22:08.105Z,59.30
2019-01-19T11:23:05.269Z,59.30
2019-01-19T11:24:05.534Z,58.90
2019-01-19T11:25:05.888Z,56.90
2019-01-19T11:26:05.135Z,57.10
2019-01-19T11:27:05.307Z,57.70
2019-01-19T11:28:08.001Z,56.60
2019-01-19T11:29:06.076Z,56.30
2019-01-19T11:30:10.929Z,53.50
2019-01-19T11:31:08.804Z,53.50
2019-01-19T11:32:08.491Z,53.50
2019-01-19T11:33:05.597Z,53.50
2019-01-19T11:34:05.815Z,53.50
2019-01-19T11:35:08.797Z,51.40
2019-01-19T11:36:11.108Z,51.20
2019-01-19T11:37:05.251Z,51.20
2019-01-19T11:38:12.359Z,51.00
2019-01-19T11:39:05.754Z,50.40
2019-01-19T11:40:05.984Z,50.60
2019-01-19T11:41:05.293Z,50.30
2019-01-19T11:42:05.397Z,50.10
2019-01-19T11:43:05.622Z,50.40
2019-01-19T11:44:08.488Z,50.30
2019-01-19T11:45:05.523Z,50.20
2019-01-19T11:46:05.699Z,50.00
2019-01-19T11:47:08.441Z,50.10
2019-01-19T11:48:05.474Z,50.10
2019-01-19T11:49:05.960Z,50.70
2019-01-19T11:50:05.281Z,50.80
2019-01-19T11:51:05.367Z,50.00
2019-01-19T11:52:05.576Z,49.80
2019-01-19T11:53:05.834Z,49.90
2019-01-19T11:54:05.059Z,49.20
2019-01-19T11:55:10.525Z,49.80
2019-01-19T11:56:12.568Z,49.20
2019-01-19T11:57:05.819Z,49.20
2019-01-19T11:58:06.071Z,49.90
2019-01-19T11:59:05.105Z,50.30
2019-01-19T12:00:05.236Z,50.60
2019-01-19T12:01:05.372Z,50.60
2019-01-19T12:02:07.933Z,50.00
2019-01-19T12:03:06.046Z,50.00
2019-01-19T12:04:05.272Z,50.50
2019-01-19T12:05:05.512Z,50.90
2019-01-19T12:06:05.751Z,50.90
2019-01-19T12:07:08.407Z,49.70
2019-01-19T12:08:05.431Z,49.80
2019-01-19T12:09:05.600Z,49.90
2019-01-19T12:10:05.771Z,49.30
2019-01-19T12:11:08.739Z,48.70
2019-01-19T12:12:08.311Z,47.70
2019-01-19T12:13:05.604Z,47.60
2019-01-19T12:14:05.772Z,47.40
2019-01-19T12:15:05.896Z,47.90
2019-01-19T12:16:08.834Z,48.60
2019-01-19T12:17:06.047Z,48.50
2019-01-19T12:18:07.678Z,49.50
2019-01-19T12:19:10.992Z,49.90
2019-01-19T12:20:06.120Z,49.90
2019-01-19T12:21:05.277Z,50.20
2019-01-19T12:22:07.930Z,50.70
2019-01-19T12:23:06.094Z,50.70
2019-01-19T12:24:06.082Z,50.80
2019-01-19T12:25:07.661Z,51.10
2019-01-19T12:26:05.867Z,51.10
2019-01-19T12:27:08.634Z,51.30
2019-01-19T12:28:05.823Z,51.30
2019-01-19T12:29:08.643Z,50.10
2019-01-19T12:30:05.810Z,50.00
2019-01-19T12:31:06.066Z,49.80
2019-01-19T12:32:05.169Z,49.60
2019-01-19T12:33:05.365Z,49.80
2019-01-19T12:34:05.134Z,50.10
2019-01-19T12:35:05.479Z,50.20
2019-01-19T12:36:05.657Z,49.50
2019-01-19T12:37:05.948Z,48.60
2019-01-19T12:38:10.396Z,48.20
2019-01-19T12:39:05.592Z,48.10
2019-01-19T12:40:08.568Z,47.10
2019-01-19T12:41:05.543Z,47.10
2019-01-19T12:42:08.153Z,45.80
2019-01-19T12:43:05.369Z,45.70
2019-01-19T12:44:05.498Z,45.30
2019-01-19T12:45:05.694Z,45.80
2019-01-19T12:46:05.901Z,45.30
2019-01-19T12:47:07.703Z,44.60
2019-01-19T12:48:05.773Z,44.60
2019-01-19T12:49:06.149Z,45.20
2019-01-19T12:50:07.871Z,44.90
2019-01-19T12:51:05.953Z,44.80
2019-01-19T12:52:06.270Z,44.30
2019-01-19T12:53:08.112Z,43.00